• Join FlightAware (Why Join?)
  • Login
  • US Flag 
12:15PM EDT


 

Airport Tracker/Info


-or-


 

Live Flight TrackerFlight Track Log ✈ PDT4314 ✈ 02-Sep-2013 ✈ KPHL - KBGM

Flight Track Log - Related Links

Times and Time Zones

All times are in EDT time to prevent confusion due to time zone crossing. See the PDT4314 flight status page for this flight to view local times or setup timezone preferences in your user account.

Time Position Orientation Groundspeed Altitude Reporting Facility
EDT Latitude Longitude Course Direction KTS MPH feet Rate Location/Type
04:51PM 39.8833 -75.2000 37° Northeast 114 131 700  Level Philadelphia TRACON
04:52PM 39.9000 -75.1833 37° Northeast 135 155 1,500 1,320 Climbing Philadelphia TRACON
04:53PM 39.9333 -75.1833 360° North 147 169 2,900 1,320 Climbing Philadelphia TRACON
04:54PM 39.9833 -75.2000 346° North 138 159 4,300 1,320 Climbing Philadelphia TRACON
04:55PM 40.0167 -75.2167 339° North 142 163 5,600 1,260 Climbing Philadelphia TRACON
04:56PM 40.0500 -75.2333 339° North 135 155 6,900 1,320 Climbing Philadelphia TRACON
04:57PM 40.0667 -75.2833 294° West 135 155 8,300 1,020 Climbing Philadelphia TRACON
04:58PM 40.0833 -75.3167 303° West 159 183 9,000 360 Climbing Philadelphia TRACON
04:59PM 40.1167 -75.3667 311° West 196 226 9,000  Level Philadelphia TRACON
04:59PM 40.1331 -75.4053 299° West 201 231 9,000 120 Level New York Center
05:00PM 40.1700 -75.4675 308° West 218 251 9,300 780 Climbing New York Center
05:01PM 40.1933 -75.5125 304° West 190 219 10,600 1,320 Climbing New York Center
05:02PM 40.2247 -75.5636 309° West 165 190 11,900 660 Climbing New York Center
05:03PM 40.2581 -75.6122 312° West 165 190 12,000 660 Climbing New York Center
05:04PM 40.2875 -75.6578 310° West 179 206 13,300 960 Climbing New York Center
05:05PM 40.3189 -75.7036 312° West 173 199 14,000 300 Climbing New York Center
05:06PM 40.3539 -75.7633 308° West 178 205 14,000  Level New York Center
05:07PM 40.3931 -75.8206 312° West 198 228 14,000  Level New York Center
05:08PM 40.4322 -75.8781 312° West 211 243 14,000  Level New York Center
05:09PM 40.4714 -75.9411 309° West 211 243 14,000  Level New York Center
05:10PM 40.5125 -76.0014 312° West 211 243 14,000  Level New York Center
05:11PM 40.5558 -76.0539 317° Northwest 211 243 14,000  Level New York Center
05:12PM 40.6061 -76.0933 329° Northwest 211 243 14,000  Level New York Center
05:13PM 40.6569 -76.1247 335° Northwest 211 243 14,000  Level New York Center
05:14PM 40.7228 -76.1408 349° North 216 249 14,000  Level New York Center
05:15PM 40.7844 -76.1592 347° North 223 257 14,000  Level New York Center
05:16PM 40.8419 -76.1803 344° North 217 250 14,000  Level New York Center
05:17PM 40.8956 -76.1956 348° North 217 250 14,000  Level New York Center
05:18PM 40.9550 -76.2139 347° North 222 255 14,000  Level New York Center
05:19PM 41.0147 -76.2269 351° North 222 255 14,000  Level New York Center
05:20PM 41.0778 -76.2183 North 216 249 14,000  Level New York Center
05:21PM 41.1469 -76.2100 North 216 249 14,000  Level New York Center
05:22PM 41.2072 -76.2094 360° North 216 249 14,000  Level New York Center
05:23PM 41.2700 -76.2061 North 216 249 14,000  Level New York Center
05:24PM 41.3267 -76.1969 North 216 249 14,000  Level New York Center
05:25PM 41.3892 -76.1936 North 216 249 14,000  Level New York Center
05:26PM 41.4581 -76.1936 360° North 221 254 14,000 -300 Level New York Center
05:27PM 41.5189 -76.1819 North 221 254 13,400 -1,020 Descending New York Center
05:28PM 41.5900 -76.1767 North 235 270 12,000 -1,440 Descending New York Center
05:29PM 41.6525 -76.1761 360° North 245 282 10,500 -1,440 Descending New York Center
05:30PM 41.7194 -76.1678 North 245 282 9,100 -1,380 Descending New York Center
05:31PM 41.7839 -76.1700 359° North 218 251 7,800 -1,680 Descending New York Center
05:32PM 41.8406 -76.1636 North 204 235 5,900 -1,800 Descending New York Center
05:33PM 41.8989 -76.1600 North 204 235 4,400 -960 Descending New York Center
05:34PM 41.9511 -76.1586 North 204 235 4,000 -240 Descending New York Center
05:35PM 42.0181 -76.1500 North 210 242 4,000  Level New York Center
05:36PM 42.0806 -76.1469 North 216 249 4,000 -180 Level New York Center
05:37PM 42.1322 -76.1092 28° Northeast 206 237 3,700 -420 Descending New York Center
05:38PM 42.1628 -76.0333 61° Northeast 201 231 3,200 -360 Descending New York Center
05:39PM 42.2075 -76.0089 22° Northeast 177 204 3,000 -120 Descending New York Center
05:40PM 42.2458 -76.0397 329° Northwest 145 167 3,000 -420 Level New York Center
05:41PM 42.2389 -76.0056 105° East 54 62 2,200 -840 Descending New York Center
05:43PM 42.2086 -75.9797 90° East  Level Estimated
05:50PM 42.2086 -75.9797 90° East  Level Estimated
05:51PM 42.2086 -75.9797 90° East  Level Estimated